Time;durP1;ratioP1;P1;durP2;ratioP2;P2;SDS_P1;SDS_P2;PMS_P1;PMS_P2;Temp;Humidity;BMP_temperature;BMP_pressure;BME280_temperature;BME280_humidity;BME280_pressure;Samples;Min_cycle;Max_cycle;Signal;HPM_P1;HPM_P2
2023/04/27 00:03:30;;;;;;;10.20;6.10;;;24.00;52.40;;;;;;222394;1260;22808;-49
2023/04/27 00:08:35;;;;;;;9.60;6.00;;;24.10;52.40;;;;;;222125;1257;22625;-48
2023/04/27 00:13:39;;;;;;;7.80;5.60;;;24.10;52.50;;;;;;222493;1264;24271;-50
2023/04/27 00:18:44;;;;;;;9.20;7.20;;;24.20;52.50;;;;;;222512;1268;25210;-49
2023/04/27 00:23:48;;;;;;;9.60;6.00;;;24.20;52.50;;;;;;222269;1254;22513;-55
2023/04/27 00:28:52;;;;;;;10.60;6.10;;;24.20;52.60;;;;;;222416;1263;24260;-47
2023/04/27 00:33:56;;;;;;;10.10;6.90;;;24.30;52.30;;;;;;222534;1263;23883;-46
2023/04/27 00:39:02;;;;;;;9.20;5.30;;;24.30;52.40;;;;;;222291;1261;23883;-47
2023/04/27 00:44:07;;;;;;;8.50;6.00;;;24.30;52.50;;;;;;222387;1258;25455;-46
2023/04/27 00:49:11;;;;;;;8.60;5.70;;;24.20;52.70;;;;;;222315;1256;22526;-47
2023/04/27 00:54:20;;;;;;;7.70;5.40;;;24.20;53.30;;;;;;222192;1244;23840;-46
2023/04/27 00:59:24;;;;;;;7.40;5.10;;;24.10;52.90;;;;;;222310;1253;23889;-47
2023/04/27 01:04:30;;;;;;;7.30;5.40;;;23.90;53.20;;;;;;222454;1257;22514;-49
2023/04/27 01:09:35;;;;;;;7.40;5.40;;;23.80;53.30;;;;;;222446;1247;24224;-47
2023/04/27 01:14:39;;;;;;;6.10;5.30;;;23.80;54.60;;;;;;222329;1258;22590;-47
2023/04/27 01:19:44;;;;;;;8.20;5.40;;;23.70;54.20;;;;;;222156;1260;25386;-49
2023/04/27 01:24:48;;;;;;;6.70;4.50;;;23.70;53.90;;;;;;222459;1246;24212;-49
2023/04/27 01:29:52;;;;;;;7.60;4.80;;;23.60;54.70;;;;;;222693;1254;22759;-52
2023/04/27 01:34:56;;;;;;;7.90;5.20;;;23.50;54.40;;;;;;222229;1263;24210;-47
2023/04/27 01:40:03;;;;;;;6.60;5.30;;;23.40;54.30;;;;;;222444;1253;22515;-48
2023/04/27 01:45:08;;;;;;;9.50;5.70;;;23.40;54.50;;;;;;222281;1263;22504;-47
2023/04/27 01:50:13;;;;;;;6.40;4.70;;;23.30;54.60;;;;;;222292;1263;25309;-49
2023/04/27 01:55:17;;;;;;;6.50;4.60;;;23.30;54.90;;;;;;222393;1249;22509;-46
2023/04/27 02:00:21;;;;;;;8.00;5.30;;;23.20;54.80;;;;;;222086;1256;22646;-47
2023/04/27 02:05:27;;;;;;;8.60;5.10;;;23.10;55.00;;;;;;222278;1260;22520;-48
2023/04/27 02:10:31;;;;;;;7.20;5.20;;;23.10;55.20;;;;;;222486;1261;25700;-48
2023/04/27 02:15:35;;;;;;;7.80;5.40;;;23.10;55.10;;;;;;222414;1263;25258;-46
2023/04/27 02:20:40;;;;;;;6.90;4.50;;;23.00;55.40;;;;;;222079;1260;22788;-46
2023/04/27 02:25:45;;;;;;;6.00;4.40;;;23.00;55.40;;;;;;222239;1254;22960;-46
2023/04/27 02:30:49;;;;;;;6.10;4.20;;;23.00;55.30;;;;;;222456;1254;24180;-45
2023/04/27 02:35:53;;;;;;;5.80;4.10;;;23.30;54.70;;;;;;222389;1264;23946;-50
2023/04/27 02:40:58;;;;;;;7.50;4.60;;;23.50;54.50;;;;;;222362;1260;25491;-48
2023/04/27 02:46:03;;;;;;;5.80;4.20;;;23.70;54.00;;;;;;222269;1254;22517;-49
2023/04/27 02:51:07;;;;;;;6.40;4.50;;;23.90;53.40;;;;;;222283;1254;22794;-48
2023/04/27 02:56:11;;;;;;;4.70;3.90;;;24.10;53.00;;;;;;222207;1253;24137;-46
2023/04/27 03:01:16;;;;;;;4.50;3.70;;;24.10;53.00;;;;;;222537;1254;22557;-47
2023/04/27 03:06:20;;;;;;;6.50;4.00;;;24.10;52.90;;;;;;222333;1253;22601;-46
2023/04/27 03:11:24;;;;;;;6.00;4.40;;;24.10;53.20;;;;;;222343;1257;22511;-44
2023/04/27 03:16:31;;;;;;;5.80;4.00;;;24.00;52.80;;;;;;222038;1260;22511;-47
2023/04/27 03:21:35;;;;;;;5.10;3.80;;;24.10;53.10;;;;;;222268;1253;24186;-45
2023/04/27 03:26:39;;;;;;;5.90;3.70;;;24.00;52.70;;;;;;222381;1253;25233;-50
2023/04/27 03:31:43;;;;;;;3.90;3.40;;;24.00;53.10;;;;;;222528;1260;22518;-49
2023/04/27 03:36:48;;;;;;;4.60;3.60;;;24.10;52.80;;;;;;222039;1253;22504;-47
2023/04/27 03:41:52;;;;;;;5.40;3.40;;;24.10;52.70;;;;;;222343;1253;22564;-49
2023/04/27 03:46:56;;;;;;;5.30;4.00;;;24.10;52.90;;;;;;222362;1263;22519;-45
2023/04/27 03:52:00;;;;;;;4.60;3.70;;;24.10;52.70;;;;;;222045;1267;22585;-50
2023/04/27 03:57:04;;;;;;;5.00;4.30;;;24.20;52.70;;;;;;222178;1254;23919;-44
2023/04/27 04:02:10;;;;;;;5.20;4.00;;;24.20;52.70;;;;;;222176;1259;24296;-45
2023/04/27 04:07:15;;;;;;;5.20;3.20;;;24.30;52.70;;;;;;222141;1263;24966;-50
2023/04/27 04:12:19;;;;;;;5.50;4.00;;;24.30;52.70;;;;;;222207;1263;22639;-47
2023/04/27 04:17:24;;;;;;;4.40;3.60;;;24.30;52.60;;;;;;222426;1263;22550;-49
2023/04/27 04:22:27;;;;;;;4.80;3.50;;;24.30;52.60;;;;;;222313;1263;22504;-45
2023/04/27 04:27:32;;;;;;;3.80;3.40;;;24.30;52.70;;;;;;222094;1266;22545;-46
2023/04/27 04:32:39;;;;;;;4.20;3.40;;;24.30;52.70;;;;;;222437;1263;25267;-46
2023/04/27 04:37:43;;;;;;;5.80;3.20;;;24.40;53.00;;;;;;222239;1253;24423;-45
2023/04/27 04:42:47;;;;;;;4.20;3.80;;;24.30;53.20;;;;;;222296;1268;23941;-48
2023/04/27 04:47:53;;;;;;;4.20;3.40;;;24.40;52.60;;;;;;222300;1263;22602;-46
2023/04/27 04:52:57;;;;;;;4.00;3.30;;;24.30;52.60;;;;;;222301;1256;23791;-47
2023/04/27 04:58:02;;;;;;;4.80;3.50;;;24.40;52.80;;;;;;222436;1266;22554;-48
2023/04/27 05:03:06;;;;;;;3.40;3.10;;;24.40;52.50;;;;;;222375;1257;24042;-49
2023/04/27 05:08:10;;;;;;;3.80;3.10;;;24.50;52.40;;;;;;222465;1263;24340;-52
2023/04/27 05:13:15;;;;;;;3.40;3.00;;;24.50;52.50;;;;;;222061;1257;22575;-47
2023/04/27 05:18:19;;;;;;;3.00;2.70;;;24.50;52.40;;;;;;222371;1263;22589;-46
2023/04/27 05:23:23;;;;;;;3.60;3.10;;;24.50;52.50;;;;;;222443;1253;22603;-45
2023/04/27 05:28:27;;;;;;;3.40;3.10;;;24.50;52.40;;;;;;222346;1256;25472;-48
2023/04/27 05:33:32;;;;;;;4.50;3.40;;;24.60;52.40;;;;;;222578;1262;22717;-48
2023/04/27 05:38:38;;;;;;;3.50;3.10;;;24.60;52.90;;;;;;222230;1254;22693;-50
2023/04/27 05:43:43;;;;;;;3.60;2.80;;;24.50;52.80;;;;;;222520;1247;24167;-54
2023/04/27 05:48:47;;;;;;;5.30;2.90;;;24.40;53.10;;;;;;222238;1254;22518;-47
2023/04/27 05:53:54;;;;;;;4.50;3.00;;;24.30;53.40;;;;;;222441;1263;22520;-47
2023/04/27 05:58:58;;;;;;;7.00;3.00;;;24.20;53.90;;;;;;222680;1257;23915;-47
2023/04/27 06:04:05;;;;;;;3.10;2.70;;;24.20;53.40;;;;;;222610;1255;22514;-56
2023/04/27 06:09:13;;;;;;;6.90;2.80;;;24.10;53.90;;;;;;222385;1262;22870;-59
2023/04/27 06:14:17;;;;;;;10.90;3.30;;;24.00;54.20;;;;;;222282;1263;24224;-58
2023/04/27 06:19:22;;;;;;;6.70;3.50;;;23.90;55.00;;;;;;222427;1256;22521;-54
2023/04/27 06:24:27;;;;;;;4.50;3.60;;;23.90;56.00;;;;;;222359;1263;24606;-56
2023/04/27 06:29:31;;;;;;;6.50;3.10;;;24.00;55.50;;;;;;222149;1263;260313;-55
2023/04/27 06:34:35;;;;;;;3.90;3.40;;;23.90;55.60;;;;;;222343;1268;22525;-48
2023/04/27 06:39:39;;;;;;;5.50;3.40;;;23.90;56.20;;;;;;222177;1263;22649;-45
2023/04/27 06:44:43;;;;;;;7.40;3.10;;;23.80;55.40;;;;;;222347;1263;23886;-47
2023/04/27 06:49:48;;;;;;;6.90;3.40;;;23.90;55.40;;;;;;222367;1247;23879;-45
2023/04/27 06:54:53;;;;;;;8.20;3.20;;;23.80;55.60;;;;;;222404;1253;23012;-43
2023/04/27 06:59:57;;;;;;;7.40;2.80;;;23.70;55.00;;;;;;222543;1256;25401;-47
2023/04/27 07:05:01;;;;;;;7.10;2.70;;;23.70;55.00;;;;;;222450;1263;22526;-46
2023/04/27 07:10:06;;;;;;;3.30;2.90;;;23.70;55.00;;;;;;222608;1265;23890;-45
2023/04/27 07:15:11;;;;;;;5.80;3.20;;;23.70;54.90;;;;;;222276;1269;22505;-43
2023/04/27 07:20:16;;;;;;;7.60;3.30;;;23.60;54.70;;;;;;222181;1257;22508;-50
2023/04/27 07:25:20;;;;;;;9.30;3.20;;;23.60;54.80;;;;;;222281;1259;24193;-50
2023/04/27 07:30:24;;;;;;;4.90;2.70;;;23.60;54.90;;;;;;222364;1267;24184;-46
2023/04/27 07:35:28;;;;;;;9.20;3.00;;;23.50;54.60;;;;;;222137;1266;22516;-46
2023/04/27 07:40:33;;;;;;;6.20;2.90;;;23.60;55.20;;;;;;222282;1256;22515;-46
2023/04/27 07:45:40;;;;;;;6.70;3.10;;;23.50;55.20;;;;;;222359;1262;22518;-48
2023/04/27 07:50:44;;;;;;;8.40;3.20;;;23.40;55.50;;;;;;222375;1256;25500;-52
2023/04/27 07:55:48;;;;;;;4.70;2.70;;;23.40;55.30;;;;;;222439;1254;22647;-49
2023/04/27 08:00:52;;;;;;;3.80;2.80;;;23.50;55.40;;;;;;221996;1256;23881;-49
2023/04/27 08:05:57;;;;;;;7.50;2.70;;;23.40;54.90;;;;;;221848;1254;24216;-48
2023/04/27 08:11:01;;;;;;;4.20;2.70;;;23.40;54.60;;;;;;222031;1262;25343;-48
2023/04/27 08:16:05;;;;;;;3.00;2.70;;;23.40;54.60;;;;;;222109;1255;25389;-50
2023/04/27 08:21:10;;;;;;;5.90;3.10;;;23.30;54.70;;;;;;222291;1250;25256;-50
2023/04/27 08:26:15;;;;;;;31.10;13.20;;;23.30;54.60;;;;;;222349;1256;24256;-52
2023/04/27 08:31:20;;;;;;;51.30;20.80;;;23.20;54.70;;;;;;222265;1254;22681;-50
2023/04/27 08:36:25;;;;;;;84.10;31.00;;;23.20;54.40;;;;;;222073;1247;24232;-47
2023/04/27 08:41:29;;;;;;;103.80;40.40;;;23.20;54.40;;;;;;222320;1257;24290;-52
2023/04/27 08:46:33;;;;;;;120.30;48.60;;;23.20;54.30;;;;;;222353;1263;25269;-53
2023/04/27 08:51:37;;;;;;;99.50;38.30;;;23.30;54.40;;;;;;222401;1256;22532;-47
2023/04/27 08:56:41;;;;;;;88.90;36.70;;;23.20;53.80;;;;;;222242;1256;24217;-47
2023/04/27 09:01:47;;;;;;;71.30;30.00;;;23.30;54.30;;;;;;221775;1254;24073;-45
2023/04/27 09:06:52;;;;;;;70.20;27.60;;;23.30;52.90;;;;;;222198;1262;24255;-49
2023/04/27 09:11:56;;;;;;;68.50;27.20;;;23.30;52.50;;;;;;222006;1263;23876;-49
2023/04/27 09:17:00;;;;;;;64.10;26.60;;;23.30;52.70;;;;;;222081;1266;22635;-50
2023/04/27 09:22:07;;;;;;;64.90;26.60;;;23.30;52.70;;;;;;222351;1260;23914;-47
2023/04/27 09:27:20;;;;;;;61.10;25.90;;;23.40;52.70;;;;;;222029;1253;22498;-55
2023/04/27 09:32:24;;;;;;;59.10;24.80;;;23.40;53.00;;;;;;222245;1253;22527;-51
2023/04/27 09:37:29;;;;;;;54.10;24.00;;;23.40;53.30;;;;;;222274;1247;22758;-55
2023/04/27 09:42:33;;;;;;;51.50;23.70;;;23.40;54.00;;;;;;222000;1263;22564;-46
2023/04/27 09:47:38;;;;;;;49.10;22.10;;;23.30;54.30;;;;;;222123;1265;24230;-51
2023/04/27 09:52:45;;;;;;;50.00;22.10;;;23.30;53.90;;;;;;222512;1263;22514;-52
2023/04/27 09:58:20;;;;;;;47.80;22.10;;;23.30;54.00;;;;;;222393;1258;23911;-54
2023/04/27 10:03:50;;;;;;;46.10;21.00;;;23.40;53.80;;;;;;222423;1263;22524;-48
2023/04/27 10:08:56;;;;;;;39.40;17.50;;;23.40;53.60;;;;;;222222;1262;22589;-46
2023/04/27 10:14:06;;;;;;;47.60;20.90;;;23.50;53.20;;;;;;222383;1263;24238;-49
2023/04/27 10:19:11;;;;;;;44.10;19.00;;;23.50;54.10;;;;;;222309;1266;25597;-46
2023/04/27 10:24:15;;;;;;;39.70;16.90;;;23.40;53.10;;;;;;222459;1264;23907;-50
2023/04/27 10:29:20;;;;;;;35.50;17.30;;;23.60;52.90;;;;;;222441;1258;25333;-43
2023/04/27 10:34:27;;;;;;;36.80;16.70;;;23.60;52.50;;;;;;222289;1260;24250;-44
2023/04/27 10:39:36;;;;;;;34.00;16.40;;;23.50;52.90;;;;;;222356;1254;23168;-48
2023/04/27 10:44:55;;;;;;;38.40;15.60;;;23.50;53.00;;;;;;222262;1263;23915;-51
2023/04/27 10:50:00;;;;;;;33.20;14.90;;;23.50;52.90;;;;;;222348;1263;23149;-54
2023/04/27 10:55:12;;;;;;;32.70;15.30;;;23.40;53.40;;;;;;222286;1260;22567;-56
2023/04/27 11:00:24;;;;;;;31.60;14.90;;;23.30;53.70;;;;;;222212;1253;22620;-51
2023/04/27 11:05:31;;;;;;;30.90;14.40;;;23.30;54.10;;;;;;222638;1258;22548;-49
2023/04/27 11:10:45;;;;;;;30.80;15.30;;;23.40;52.90;;;;;;222205;1254;23938;-44
2023/04/27 11:15:51;;;;;;;26.80;13.20;;;23.50;53.10;;;;;;222154;1254;24388;-48
2023/04/27 11:21:12;;;;;;;23.00;12.50;;;23.50;53.00;;;;;;222169;1257;22640;-50
2023/04/27 11:26:24;;;;;;;22.60;12.20;;;23.40;53.20;;;;;;222102;1259;22772;-48
2023/04/27 11:31:42;;;;;;;24.20;12.70;;;23.40;53.00;;;;;;222076;1256;22789;-52
2023/04/27 11:37:04;;;;;;;24.70;12.30;;;23.40;52.90;;;;;;222212;1263;22522;-53
2023/04/27 11:42:18;;;;;;;22.50;10.90;;;23.50;53.10;;;;;;222150;1266;22652;-47
2023/04/27 11:47:24;;;;;;;20.40;11.00;;;23.50;52.80;;;;;;222129;1263;25392;-51
2023/04/27 11:52:29;;;;;;;21.20;11.30;;;23.40;53.10;;;;;;222026;1266;22942;-45
2023/04/27 11:57:37;;;;;;;20.40;10.40;;;23.40;53.10;;;;;;222185;1256;25315;-48
2023/04/27 12:02:42;;;;;;;18.70;10.10;;;23.40;53.00;;;;;;222147;1256;22597;-43
2023/04/27 12:07:47;;;;;;;20.70;9.90;;;23.40;53.10;;;;;;222395;1254;24235;-44
2023/04/27 12:12:51;;;;;;;17.90;10.10;;;23.40;52.70;;;;;;222171;1266;22533;-45
2023/04/27 12:17:55;;;;;;;20.40;9.30;;;23.50;52.60;;;;;;222419;1262;22782;-49
2023/04/27 12:22:59;;;;;;;16.60;9.00;;;23.40;52.60;;;;;;222180;1253;22649;-49
2023/04/27 12:28:03;;;;;;;18.40;9.00;;;23.50;52.40;;;;;;222358;1266;24237;-45
2023/04/27 12:33:09;;;;;;;15.20;8.40;;;23.50;52.30;;;;;;222155;1269;24384;-46
2023/04/27 12:38:14;;;;;;;16.60;8.70;;;23.60;52.00;;;;;;222340;1253;22508;-46
2023/04/27 12:43:18;;;;;;;16.40;8.20;;;23.50;52.10;;;;;;222292;1260;22511;-52
2023/04/27 12:48:22;;;;;;;22.40;8.60;;;23.30;52.60;;;;;;222311;1260;22542;-58
2023/04/27 12:53:27;;;;;;;15.60;8.70;;;23.30;53.50;;;;;;222312;1259;26509;-54
2023/04/27 12:58:31;;;;;;;14.00;7.70;;;23.30;53.90;;;;;;222428;1252;24174;-52
2023/04/27 13:03:35;;;;;;;20.00;8.30;;;23.40;53.10;;;;;;222229;1266;22508;-48
2023/04/27 13:08:40;;;;;;;10.90;6.90;;;23.30;53.30;;;;;;222352;1254;24004;-50
2023/04/27 13:13:44;;;;;;;12.70;7.60;;;23.30;53.00;;;;;;222385;1257;22513;-51
2023/04/27 13:18:49;;;;;;;13.60;7.00;;;23.30;53.70;;;;;;222303;1263;22516;-55
2023/04/27 13:23:53;;;;;;;12.30;6.70;;;23.40;52.90;;;;;;222212;1263;24167;-51
2023/04/27 13:28:57;;;;;;;14.90;7.50;;;23.40;52.90;;;;;;222393;1260;25343;-52
2023/04/27 13:34:03;;;;;;;12.70;6.40;;;23.40;52.60;;;;;;222489;1251;22516;-53
2023/04/27 13:39:07;;;;;;;11.00;7.00;;;23.40;52.70;;;;;;222185;1267;22703;-47
2023/04/27 13:44:11;;;;;;;11.40;6.20;;;23.40;52.80;;;;;;222532;1264;22593;-56
2023/04/27 13:49:16;;;;;;;12.50;6.10;;;23.40;52.50;;;;;;222240;1247;22558;-50
2023/04/27 13:54:20;;;;;;;9.20;5.50;;;23.40;52.40;;;;;;222410;1254;25484;-53
2023/04/27 13:59:24;;;;;;;8.00;5.80;;;23.50;52.20;;;;;;222501;1254;26505;-50
2023/04/27 14:04:28;;;;;;;8.30;5.30;;;23.40;52.30;;;;;;224350;1263;22900;-51
2023/04/27 14:09:32;;;;;;;8.80;5.30;;;23.50;51.70;;;;;;225154;1253;25624;-49
2023/04/27 14:14:38;;;;;;;14.40;8.70;;;23.60;51.80;;;;;;223002;1253;22638;-55
2023/04/27 14:19:43;;;;;;;29.30;14.00;;;23.50;51.80;;;;;;222676;1259;24357;-53
2023/04/27 14:24:47;;;;;;;48.30;19.00;;;23.40;51.50;;;;;;222483;1261;22507;-56
2023/04/27 14:29:52;;;;;;;69.30;26.50;;;23.50;51.80;;;;;;222133;1260;24190;-57
2023/04/27 14:34:57;;;;;;;108.30;37.00;;;23.70;51.60;;;;;;222319;1256;22636;-53
2023/04/27 14:40:03;;;;;;;133.10;43.20;;;23.80;51.30;;;;;;222303;1254;23367;-57
2023/04/27 14:45:08;;;;;;;99.20;37.10;;;23.80;51.10;;;;;;222338;1256;26514;-54
2023/04/27 14:50:14;;;;;;;76.20;33.20;;;23.70;51.30;;;;;;222281;1251;22596;-54
2023/04/27 14:55:20;;;;;;;80.50;31.50;;;23.70;51.90;;;;;;222572;1254;25316;-54
2023/04/27 15:00:24;;;;;;;75.00;29.70;;;23.70;51.80;;;;;;222476;1261;23064;-53
2023/04/27 15:05:28;;;;;;;80.30;29.30;;;23.70;52.10;;;;;;222766;1254;25303;-53
2023/04/27 15:10:32;;;;;;;71.60;27.30;;;23.80;51.60;;;;;;222273;1254;25326;-50
2023/04/27 15:15:36;;;;;;;74.00;25.90;;;23.70;52.20;;;;;;222459;1262;24354;-55
2023/04/27 15:20:40;;;;;;;64.80;24.60;;;23.80;52.40;;;;;;222569;1260;24244;-53
2023/04/27 15:25:49;;;;;;;61.30;24.10;;;23.70;52.40;;;;;;222277;1254;25316;-53
2023/04/27 15:30:54;;;;;;;56.00;24.50;;;23.60;52.10;;;;;;222623;1253;22523;-52
2023/04/27 15:35:59;;;;;;;58.40;24.30;;;23.60;52.10;;;;;;222346;1266;22528;-51
2023/04/27 15:41:04;;;;;;;57.80;23.00;;;23.70;53.40;;;;;;222301;1255;25271;-52
2023/04/27 15:46:10;;;;;;;50.20;21.00;;;23.60;54.40;;;;;;222688;1256;24310;-49
2023/04/27 15:51:14;;;;;;;53.60;21.70;;;23.80;55.10;;;;;;222489;1263;22523;-52
2023/04/27 15:56:19;;;;;;;48.80;19.10;;;23.90;54.70;;;;;;222543;1263;26369;-54
2023/04/27 16:01:24;;;;;;;45.40;19.30;;;23.70;54.90;;;;;;221924;1261;22503;-55
2023/04/27 16:06:33;;;;;;;46.90;19.70;;;23.70;54.60;;;;;;222289;1254;22527;-49
2023/04/27 16:11:38;;;;;;;40.80;17.10;;;23.60;54.10;;;;;;222226;1263;24228;-52
2023/04/27 16:16:41;;;;;;;45.30;18.90;;;23.60;54.00;;;;;;222736;1250;22530;-55
2023/04/27 16:21:46;;;;;;;39.00;17.30;;;23.60;53.80;;;;;;222273;1254;24245;-47
2023/04/27 16:26:50;;;;;;;35.90;16.90;;;23.60;53.70;;;;;;222338;1263;25268;-49
2023/04/27 16:31:54;;;;;;;41.90;17.30;;;23.60;53.60;;;;;;222319;1263;25392;-52
2023/04/27 16:36:58;;;;;;;32.50;15.50;;;23.60;53.40;;;;;;222537;1262;22770;-47
2023/04/27 16:42:03;;;;;;;33.50;15.90;;;23.50;53.40;;;;;;222402;1267;25329;-47
2023/04/27 16:47:07;;;;;;;35.20;15.40;;;23.50;53.30;;;;;;222353;1259;23881;-47
2023/04/27 16:52:11;;;;;;;30.40;14.00;;;23.50;53.20;;;;;;222350;1260;23940;-50
2023/04/27 16:57:15;;;;;;;36.10;14.30;;;23.50;53.10;;;;;;222123;1251;23250;-49
2023/04/27 17:02:19;;;;;;;29.40;14.50;;;23.40;53.30;;;;;;222412;1251;23873;-55
2023/04/27 17:07:31;;;;;;;30.30;13.60;;;23.50;53.10;;;;;;222160;1267;24218;-50
2023/04/27 17:12:36;;;;;;;28.40;13.80;;;23.40;53.10;;;;;;224169;1260;22671;-48
2023/04/27 17:17:40;;;;;;;29.00;13.20;;;23.40;53.10;;;;;;222179;1258;25443;-48
2023/04/27 17:22:45;;;;;;;33.00;12.80;;;23.30;53.30;;;;;;222285;1247;24064;-47
2023/04/27 17:27:50;;;;;;;23.70;12.40;;;23.20;53.10;;;;;;222637;1263;23230;-55
2023/04/27 17:32:55;;;;;;;26.30;11.90;;;23.20;53.10;;;;;;222175;1267;22796;-48
2023/04/27 17:38:00;;;;;;;19.70;11.50;;;23.20;53.30;;;;;;223749;1267;22517;-55
2023/04/27 17:43:04;;;;;;;31.80;12.00;;;23.20;53.00;;;;;;222327;1267;24250;-50
2023/04/27 17:48:09;;;;;;;23.10;11.50;;;23.10;53.40;;;;;;222363;1247;24190;-53
2023/04/27 17:53:14;;;;;;;26.40;11.30;;;23.10;53.50;;;;;;222304;1263;22517;-53
2023/04/27 17:58:18;;;;;;;23.20;11.80;;;23.10;54.00;;;;;;222340;1253;22533;-49
2023/04/27 18:03:22;;;;;;;27.60;12.40;;;23.00;53.50;;;;;;222284;1263;22514;-52
2023/04/27 18:08:27;;;;;;;26.40;12.70;;;23.10;52.80;;;;;;222363;1261;24433;-50
2023/04/27 18:13:31;;;;;;;24.50;11.50;;;23.20;53.30;;;;;;222600;1260;22521;-51
2023/04/27 18:18:36;;;;;;;27.80;13.00;;;23.20;53.50;;;;;;222135;1253;23957;-49
2023/04/27 18:23:41;;;;;;;25.50;13.80;;;23.00;53.00;;;;;;222350;1263;22594;-47
2023/04/27 18:28:47;;;;;;;32.20;15.10;;;23.00;53.20;;;;;;222452;1253;270301;-48
2023/04/27 18:33:51;;;;;;;23.00;13.80;;;22.90;53.00;;;;;;222388;1261;22530;-45
2023/04/27 18:38:57;;;;;;;30.60;16.20;;;22.90;53.30;;;;;;222271;1260;24947;-46
2023/04/27 18:44:04;;;;;;;27.80;15.00;;;22.90;52.90;;;;;;222167;1253;22638;-49
2023/04/27 18:49:09;;;;;;;33.70;15.80;;;22.90;52.10;;;;;;222403;1261;22595;-46
2023/04/27 18:54:13;;;;;;;35.90;16.50;;;22.90;52.60;;;;;;222312;1254;24183;-43
2023/04/27 18:59:19;;;;;;;30.60;15.70;;;23.10;52.80;;;;;;222268;1260;22511;-45
2023/04/27 19:04:25;;;;;;;32.10;15.80;;;23.10;52.30;;;;;;222464;1254;25265;-46
2023/04/27 19:09:31;;;;;;;26.90;14.70;;;23.00;52.10;;;;;;222362;1254;22520;-47
2023/04/27 19:14:39;;;;;;;30.80;15.80;;;23.10;52.20;;;;;;222653;1254;22520;-49
2023/04/27 19:19:44;;;;;;;24.80;15.20;;;23.10;52.80;;;;;;222282;1254;22530;-46
2023/04/27 19:24:50;;;;;;;30.70;15.50;;;23.10;52.30;;;;;;222255;1261;22640;-47
2023/04/27 19:29:57;;;;;;;33.00;16.60;;;23.00;52.70;;;;;;222290;1254;22508;-45
2023/04/27 19:35:01;;;;;;;38.30;19.30;;;22.80;53.20;;;;;;222472;1264;24319;-48
2023/04/27 19:40:07;;;;;;;52.80;25.50;;;23.10;52.70;;;;;;222444;1245;22525;-48
2023/04/27 19:45:11;;;;;;;66.50;31.60;;;23.40;52.00;;;;;;222421;1264;22521;-45
2023/04/27 19:50:17;;;;;;;83.80;37.60;;;23.60;51.20;;;;;;222453;1248;25230;-47
2023/04/27 19:55:21;;;;;;;104.70;41.70;;;23.80;51.10;;;;;;222071;1260;22564;-49
2023/04/27 20:00:26;;;;;;;101.10;44.10;;;24.00;50.30;;;;;;222260;1264;23366;-47
2023/04/27 20:05:30;;;;;;;91.90;42.20;;;24.10;50.50;;;;;;222281;1254;22515;-45
2023/04/27 20:10:35;;;;;;;94.10;41.80;;;24.10;50.30;;;;;;222293;1263;24205;-46
2023/04/27 20:15:39;;;;;;;80.20;40.50;;;24.10;50.50;;;;;;222301;1264;22576;-46
2023/04/27 20:20:44;;;;;;;81.70;38.50;;;24.20;50.40;;;;;;222078;1267;22523;-52
2023/04/27 20:25:48;;;;;;;77.50;38.00;;;24.20;50.40;;;;;;222357;1264;22548;-52
2023/04/27 20:30:52;;;;;;;75.50;37.00;;;24.30;50.50;;;;;;222068;1264;22515;-53
2023/04/27 20:35:56;;;;;;;72.00;35.80;;;24.30;49.90;;;;;;222194;1263;22523;-49
2023/04/27 20:41:11;;;;;;;73.00;34.60;;;24.40;50.40;;;;;;222210;1251;23944;-52
2023/04/27 20:46:16;;;;;;;68.80;35.80;;;24.50;50.40;;;;;;222415;1263;22534;-55
2023/04/27 20:51:22;;;;;;;75.50;35.60;;;24.50;50.30;;;;;;222277;1253;22997;-54
2023/04/27 20:56:29;;;;;;;65.00;34.00;;;24.50;50.30;;;;;;222462;1264;22534;-50
2023/04/27 21:01:33;;;;;;;71.40;34.70;;;24.50;50.60;;;;;;222236;1256;25309;-53
2023/04/27 21:06:38;;;;;;;69.70;34.00;;;24.50;50.60;;;;;;222252;1263;24215;-50
2023/04/27 21:11:42;;;;;;;60.20;32.90;;;24.50;50.70;;;;;;222484;1257;24141;-50
2023/04/27 21:16:46;;;;;;;60.90;30.90;;;24.40;50.90;;;;;;222032;1264;23926;-50
2023/04/27 21:21:50;;;;;;;58.00;32.30;;;24.30;51.30;;;;;;222197;1256;24193;-55
2023/04/27 21:26:54;;;;;;;59.40;31.80;;;24.20;51.50;;;;;;222018;1264;23898;-51
2023/04/27 21:31:58;;;;;;;66.20;32.00;;;24.10;52.50;;;;;;222127;1263;23089;-51
2023/04/27 21:37:02;;;;;;;59.30;30.30;;;24.00;54.10;;;;;;222211;1264;22755;-53
2023/04/27 21:42:06;;;;;;;54.50;30.10;;;23.90;54.20;;;;;;222248;1262;23955;-53
2023/04/27 21:47:11;;;;;;;56.10;29.00;;;23.80;54.80;;;;;;221768;1263;25309;-52
2023/04/27 21:52:15;;;;;;;57.90;30.20;;;23.70;54.90;;;;;;221874;1263;22800;-53
2023/04/27 21:57:19;;;;;;;56.10;30.70;;;23.80;54.60;;;;;;222011;1263;22515;-57
2023/04/27 22:02:23;;;;;;;57.10;29.80;;;23.70;54.60;;;;;;222199;1263;25308;-53
2023/04/27 22:07:28;;;;;;;52.60;30.00;;;23.80;54.50;;;;;;222014;1247;26504;-52
2023/04/27 22:12:32;;;;;;;54.30;29.60;;;23.70;54.60;;;;;;222280;1264;24207;-57
2023/04/27 22:17:38;;;;;;;47.20;28.30;;;23.60;54.70;;;;;;222390;1269;24039;-51
2023/04/27 22:22:42;;;;;;;53.20;28.50;;;23.50;54.80;;;;;;222320;1263;22532;-55
2023/04/27 22:27:47;;;;;;;48.70;27.10;;;23.50;55.10;;;;;;222128;1262;24197;-57
2023/04/27 22:32:53;;;;;;;46.40;25.60;;;23.50;55.10;;;;;;222160;1261;23764;-54
2023/04/27 22:37:58;;;;;;;51.10;25.80;;;23.30;55.20;;;;;;222331;1263;25462;-51
2023/04/27 22:43:02;;;;;;;48.40;27.20;;;23.30;55.20;;;;;;222420;1264;24337;-56
2023/04/27 22:48:06;;;;;;;46.40;25.00;;;23.20;55.50;;;;;;222233;1263;22656;-53
2023/04/27 22:53:11;;;;;;;41.70;24.50;;;23.20;55.70;;;;;;222466;1263;22524;-54
2023/04/27 22:58:15;;;;;;;45.20;25.80;;;23.10;55.70;;;;;;222556;1246;24218;-53
2023/04/27 23:03:21;;;;;;;43.50;24.90;;;23.10;55.30;;;;;;222535;1268;22640;-53
2023/04/27 23:08:25;;;;;;;37.90;23.60;;;23.10;55.50;;;;;;222690;1250;23010;-49
2023/04/27 23:13:30;;;;;;;43.70;25.60;;;23.00;55.50;;;;;;222732;1254;22763;-52
2023/04/27 23:18:34;;;;;;;38.20;23.20;;;23.00;55.60;;;;;;222465;1269;22779;-53
2023/04/27 23:23:38;;;;;;;39.40;23.30;;;22.90;55.80;;;;;;222823;1258;22545;-52
2023/04/27 23:28:43;;;;;;;48.30;23.30;;;22.80;56.10;;;;;;222595;1254;25268;-45
2023/04/27 23:33:47;;;;;;;38.10;22.70;;;23.00;58.00;;;;;;222436;1263;22563;-48
2023/04/27 23:38:52;;;;;;;39.90;23.30;;;22.90;58.70;;;;;;222298;1263;22515;-47
2023/04/27 23:43:56;;;;;;;37.20;22.50;;;22.80;58.30;;;;;;222470;1256;22665;-46
2023/04/27 23:49:01;;;;;;;32.80;21.20;;;22.80;58.50;;;;;;222288;1266;22520;-46
2023/04/27 23:54:05;;;;;;;35.40;21.00;;;22.90;57.90;;;;;;222346;1266;22606;-45
2023/04/27 23:59:09;;;;;;;37.30;20.50;;;23.30;57.00;;;;;;222188;1253;22522;-44
